Have a Safe July 4th! 

Flight Track Log - Related Links

Times and Time Zones

All times are in EST time to prevent confusion due to time zone crossing. See the EJA829P flight status page for this flight to view local times or setup timezone preferences in your user account.

Time Position Orientation Groundspeed Altitude Reporting Facility
EST Latitude Longitude Course Direction KTS MPH feet Rate Location/Type
Sun 04:31:10 PM 40.6264 -75.4742 251° West 185 213 2,300  Level New York Center
Sun 04:32:11 PM 40.6139 -75.5225 251° West 185 213 5,600 3,074 Climbing New York Center
Sun 04:33:11 PM 40.5981 -75.6061 256° West 209 241 8,500 3,254 Climbing New York Center
Sun 04:34:09 PM 40.5736 -75.6892 249° West 237 273 12,000 2,773 Climbing New York Center
Sun 04:35:10 PM 40.5250 -75.7567 227° Southwest 250 288 14,000 2,033 Climbing New York Center
Sun 04:36:10 PM 40.4808 -75.8189 227° Southwest 262 302 16,100 1,934 Climbing New York Center
Sun 04:37:11 PM 40.4278 -75.8858 224° Southwest 267 307 17,900 934 Climbing New York Center
Sun 04:38:12 PM 40.3722 -75.9636 227° Southwest 267 307 18,000 1,059 Climbing New York Center
Sun 04:39:10 PM 40.3236 -76.0253 224° Southwest 267 307 20,000 2,205 Climbing New York Center
Sun 04:40:09 PM 40.2708 -76.0919 224° Southwest 267 307 22,300 2,300 Climbing New York Center
Sun 04:41:10 PM 40.2153 -76.1639 225° Southwest 272 313 24,600 1,967 Climbing New York Center
Sun 04:42:11 PM 40.1542 -76.2269 218° Southwest 272 313 26,300 1,866 Climbing New York Center
Sun 04:43:09 PM 40.0722 -76.2831 208° Southwest 308 354 28,300 2,168 Climbing New York Center
Sun 04:44:10 PM 39.9925 -76.3364 207° Southwest 324 373 30,600 2,182 Climbing New York Center
Sun 04:45:10 PM 39.8889 -76.3253 175° South 340 391 32,700 1,664 Climbing New York Center
Sun 04:46:09 PM 39.7739 -76.2892 166° South 356 410 33,900 1,462 Climbing New York Center
Sun 04:47:09 PM 39.6853 -76.3092 190° South 352 405 35,600 1,620 Climbing New York Center
Sun 04:48:52 PM 39.5711 -76.4369 221° Southwest 305 351 38,300 1,399 Climbing Washington Center
Sun 04:49:52 PM 39.5081 -76.5061 220° Southwest 305 351 39,400 864 Climbing Washington Center
Sun 04:50:50 PM 39.4450 -76.5778 221° Southwest 305 351 40,000 305 Climbing Washington Center
Sun 04:51:50 PM 39.3925 -76.6361 221° Southwest 305 351 40,000  Level Washington Center
Sun 04:52:50 PM 39.3167 -76.7208 221° Southwest 318 366 40,000  Level Washington Center
Sun 04:53:51 PM 39.2469 -76.8003 221° Southwest 332 382 40,000  Level Washington Center
Sun 04:54:52 PM 39.1733 -76.8847 222° Southwest 344 396 40,000  Level Washington Center
Sun 04:55:52 PM 39.0994 -76.9636 220° Southwest 349 402 40,000  Level Washington Center
Sun 04:56:52 PM 39.0256 -77.0506 222° Southwest 349 402 40,000  Level Washington Center
Sun 04:57:50 PM 38.9472 -77.1344 220° Southwest 354 407 40,000  Level Washington Center
Sun 04:58:51 PM 38.8711 -77.2181 221° Southwest 361 415 40,000  Level Washington Center
Sun 04:59:52 PM 38.7950 -77.2989 220° Southwest 361 415 40,000  Level Washington Center
Sun 05:00:53 PM 38.7186 -77.3822 220° Southwest 361 415 40,000  Level Washington Center
Sun 05:01:50 PM 38.6403 -77.4708 221° Southwest 361 415 40,000  Level Washington Center
Sun 05:02:50 PM 38.5658 -77.5539 221° Southwest 361 415 40,000  Level Washington Center
Sun 05:03:51 PM 38.4875 -77.6367 220° Southwest 361 415 40,000  Level Washington Center
Sun 05:04:51 PM 38.4131 -77.7222 222° Southwest 361 415 40,000  Level Washington Center
Sun 05:05:52 PM 38.3364 -77.8047 220° Southwest 366 421 40,000  Level Washington Center
Sun 05:06:52 PM 38.2575 -77.8894 220° Southwest 366 421 40,000  Level Washington Center
Sun 05:07:52 PM 38.1744 -77.9794 220° Southwest 366 421 40,000  Level Washington Center
Sun 05:08:50 PM 38.0978 -78.0642 221° Southwest 366 421 40,000  Level Washington Center
Sun 05:09:50 PM 38.0208 -78.1486 221° Southwest 366 421 40,000  Level Washington Center
Sun 05:10:51 PM 37.9442 -78.2222 217° Southwest 366 421 40,000  Level Washington Center
Sun 05:11:52 PM 37.8781 -78.2883 218° Southwest 366 421 40,000  Level Washington Center
Sun 05:12:50 PM 37.7992 -78.3644 217° Southwest 366 421 40,000  Level Washington Center
Sun 05:13:51 PM 37.6947 -78.4603 216° Southwest 378 435 40,000  Level Washington Center
Sun 05:14:52 PM 37.6136 -78.5358 216° Southwest 373 429 40,000  Level Washington Center
Sun 05:15:52 PM 37.5367 -78.6064 216° Southwest 373 429 40,000  Level Washington Center
Sun 05:16:50 PM 37.4533 -78.6842 217° Southwest 373 429 40,000  Level Washington Center
Sun 05:17:51 PM 37.3681 -78.7617 216° Southwest 373 429 40,000  Level Washington Center
Sun 05:18:52 PM 37.2844 -78.8417 217° Southwest 373 429 40,000  Level Washington Center
Sun 05:19:53 PM 37.1903 -78.9289 216° Southwest 378 435 40,000  Level Washington Center
Sun 05:20:50 PM 37.1067 -79.0061 216° Southwest 378 435 40,000  Level Washington Center
Sun 05:21:50 PM 37.0231 -79.0856 217° Southwest 378 435 40,000  Level Washington Center
Sun 05:22:51 PM 36.9394 -79.1625 216° Southwest 378 435 40,000  Level Washington Center
Sun 05:23:52 PM 36.8558 -79.2364 215° Southwest 372 428 40,000  Level Washington Center
Sun 05:24:50 PM 36.7786 -79.3081 217° Southwest 372 428 40,000  Level Washington Center
Sun 05:25:50 PM 36.6992 -79.3819 217° Southwest 372 428 40,000  Level Washington Center
Sun 05:26:51 PM 36.6153 -79.4581 216° Southwest 372 428 40,000  Level Washington Center
Sun 05:27:51 PM 36.5314 -79.5339 216° Southwest 372 428 40,000  Level Washington Center
Sun 05:29:55 PM 36.3528 -79.6950 216° Southwest 373 429 40,000  Level Atlanta Center
Sun 05:30:55 PM 36.2758 -79.7636 216° Southwest 373 429 40,000  Level Atlanta Center
Sun 05:31:55 PM 36.1928 -79.8375 216° Southwest 373 429 40,000  Level Atlanta Center
Sun 05:32:54 PM 36.1100 -79.9136 217° Southwest 373 429 40,000  Level Atlanta Center
Sun 05:33:55 PM 36.0225 -79.9850 213° Southwest 373 429 40,000  Level Atlanta Center
Sun 05:34:55 PM 35.9053 -80.0317 198° South 387 445 40,000  Level Atlanta Center
Sun 05:35:55 PM 35.8000 -80.0678 196° South 394 453 40,000  Level Atlanta Center
Sun 05:36:55 PM 35.6883 -80.1011 194° South 401 461 40,000  Level Atlanta Center
Sun 05:37:55 PM 35.5814 -80.1422 197° South 406 467 40,000  Level Atlanta Center
Sun 05:38:55 PM 35.4719 -80.1778 195° South 411 473 40,000  Level Atlanta Center
Sun 05:39:55 PM 35.3664 -80.2108 194° South 411 473 40,000  Level Atlanta Center
Sun 05:40:55 PM 35.2550 -80.2467 195° South 411 473 40,000  Level Atlanta Center
Sun 05:42:45 PM 35.0511 -80.3114 195° South 412 474 40,000  Level Jacksonville Center
Sun 05:43:45 PM 34.9436 -80.3475 195° South 412 474 40,000  Level Jacksonville Center
Sun 05:44:45 PM 34.8336 -80.3836 195° South 412 474 40,000  Level Jacksonville Center
Sun 05:45:45 PM 34.7383 -80.4117 194° South 412 474 40,000  Level Jacksonville Center
Sun 05:46:45 PM 34.6306 -80.4450 194° South 412 474 40,000  Level Jacksonville Center
Sun 05:47:45 PM 34.5206 -80.4808 195° South 412 474 40,000  Level Jacksonville Center
Sun 05:48:45 PM 34.4108 -80.5167 195° South 412 474 40,000  Level Jacksonville Center
Sun 05:49:45 PM 34.3028 -80.5497 194° South 412 474 40,000  Level Jacksonville Center
Sun 05:50:45 PM 34.1972 -80.5828 195° South 412 474 40,000  Level Jacksonville Center
Sun 05:51:45 PM 34.0892 -80.6133 193° South 407 468 40,000  Level Jacksonville Center
Sun 05:52:45 PM 33.9725 -80.6264 185° South 413 475 40,000  Level Jacksonville Center
Sun 05:53:45 PM 33.8581 -80.6367 184° South 418 481 40,000  Level Jacksonville Center
Sun 05:54:45 PM 33.7289 -80.6500 185° South 424 488 40,000  Level Jacksonville Center
Sun 05:55:45 PM 33.6164 -80.6653 186° South 424 488 40,000  Level Jacksonville Center
Sun 05:56:45 PM 33.5039 -80.6783 186° South 419 482 40,000  Level Jacksonville Center
Sun 05:57:45 PM 33.3872 -80.6886 184° South 419 482 40,000  Level Jacksonville Center
Sun 05:58:45 PM 33.2728 -80.7039 186° South 424 488 40,000  Level Jacksonville Center
Sun 05:59:45 PM 33.1561 -80.7167 185° South 424 488 40,000  Level Jacksonville Center
Sun 06:00:45 PM 33.0372 -80.7294 185° South 424 488 40,000  Level Jacksonville Center
Sun 06:01:45 PM 32.9206 -80.7419 185° South 424 488 40,000  Level Jacksonville Center
Sun 06:02:45 PM 32.8039 -80.7522 184° South 424 488 40,000  Level Jacksonville Center
Sun 06:03:45 PM 32.6872 -80.7625 184° South 424 488 40,000  Level Jacksonville Center
Sun 06:04:45 PM 32.5706 -80.7750 185° South 415 478 40,000  Level Jacksonville Center
Sun 06:05:45 PM 32.4539 -80.7900 186° South 422 486 40,000  Level Jacksonville Center
Sun 06:06:45 PM 32.3539 -80.7997 185° South 417 480 40,000  Level Jacksonville Center
Sun 06:07:45 PM 32.2247 -80.8125 185° South 423 487 40,000  Level Jacksonville Center
Sun 06:08:45 PM 32.1078 -80.8250 185° South 423 487 40,000  Level Jacksonville Center
Sun 06:09:45 PM 32.0017 -80.8347 184° South 423 487 40,000  Level Jacksonville Center
Sun 06:10:45 PM 31.8767 -80.8497 186° South 423 487 40,000  Level Jacksonville Center
Sun 06:11:45 PM 31.7597 -80.8622 185° South 416 479 40,000  Level Jacksonville Center
Sun 06:12:45 PM 31.6536 -80.8717 184° South 421 484 40,000  Level Jacksonville Center
Sun 06:13:45 PM 31.5286 -80.8867 186° South 421 484 40,000  Level Jacksonville Center
Sun 06:14:45 PM 31.4139 -80.8964 184° South 421 484 40,000  Level Jacksonville Center
Sun 06:15:45 PM 31.3097 -80.9083 186° South 427 491 40,000  Level Jacksonville Center
Sun 06:16:45 PM 31.1950 -80.9206 185° South 427 491 40,000  Level Jacksonville Center
Sun 06:17:45 PM 31.0783 -80.9328 185° South 427 491 40,000  Level Jacksonville Center
Sun 06:18:45 PM 30.9636 -80.9447 185° South 422 486 40,000 -850 Level Jacksonville Center
Sun 06:19:45 PM 30.8447 -80.9569 185° South 422 486 38,300 -1,950 Descending Jacksonville Center
Sun 06:20:45 PM 30.7364 -80.9686 185° South 417 480 36,100 -2,100 Descending Jacksonville Center
Sun 06:21:45 PM 30.6281 -80.9781 184° South 406 467 34,100 -1,050 Descending Jacksonville Center
Sun 06:22:45 PM 30.5153 -80.9900 185° South 406 467 34,000 -300 Descending Jacksonville Center
Sun 06:23:45 PM 30.3986 -81.0019 185° South 406 467 33,500 -1,150 Descending Jacksonville Center
Sun 06:24:45 PM 30.2839 -81.0139 185° South 406 467 31,700 -1,800 Descending Jacksonville Center
Sun 06:25:45 PM 30.1653 -81.0258 185° South 419 482 29,900 -1,850 Descending Jacksonville Center
Sun 06:26:45 PM 30.0464 -81.0403 186° South 424 488 28,000 -1,850 Descending Jacksonville Center
Sun 06:27:45 PM 29.9297 -81.0494 184° South 429 494 26,200 -1,800 Descending Jacksonville Center
Sun 06:28:45 PM 29.8128 -81.0636 186° South 424 488 24,400 -1,800 Descending Jacksonville Center
Sun 06:29:45 PM 29.7003 -81.0756 185° South 424 488 22,600 -1,750 Descending Jacksonville Center
Sun 06:30:45 PM 29.5897 -81.0869 185° South 413 475 20,900 -1,650 Descending Jacksonville Center
Sun 06:31:45 PM 29.4836 -81.0986 185° South 402 463 19,300 -1,650 Descending Jacksonville Center
Sun 06:32:45 PM 29.3708 -81.1053 183° South 383 441 17,600 -1,650 Descending Jacksonville Center
Sun 06:33:45 PM 29.2667 -81.1119 183° South 377 434 16,000 -1,600 Descending Jacksonville Center
Sun 06:34:45 PM 29.1622 -81.1044 176° South 370 426 14,400 -1,600 Descending Jacksonville Center
Sun 06:35:45 PM 29.0619 -81.0944 175° South 370 426 12,800 -1,200 Descending Jacksonville Center
Sun 06:36:45 PM 28.9636 -81.0819 174° South 365 420 12,000 -600 Descending Jacksonville Center
Sun 06:37:45 PM 28.8633 -81.0861 182° South 365 420 11,600 -900 Descending Jacksonville Center
Sun 06:38:45 PM 28.7700 -81.1139 195° South 365 420 10,200 -1,300 Descending Jacksonville Center
Sun 06:39:45 PM 28.6908 -81.1389 195° South 334 384 9,000 -600 Descending Jacksonville Center
Sun 06:40:45 PM 28.6142 -81.1639 196° South 310 357 9,000  Level Jacksonville Center
Sun 06:41:45 PM 28.5372 -81.1864 194° South 293 337 9,000  Level Jacksonville Center
Sun 06:42:45 PM 28.4664 -81.1900 183° South 275 316 9,000 -800 Level Jacksonville Center
Sun 06:43:45 PM 28.3975 -81.1889 179° South 256 295 7,400 -1,752 Descending Jacksonville Center
Sun 06:45:02 PM 28.3167 -81.2167 197° South 241 277 5,000 -1,489 Descending Orlando TRACON
Sun 06:46:02 PM 28.2833 -81.2667 233° Southwest 219 252 4,000 -1,050 Descending Orlando TRACON
Sun 06:47:02 PM 28.2833 -81.3167 270° West 175 201 2,900 -1,091 Descending Orlando TRACON
Sun 06:48:03 PM 28.3333 -81.3333 344° North 134 154 1,800 -893 Descending Orlando TRACON
Sun 06:49:03 PM 28.3667 -81.3333 360° North 116 133 1,100 -600 Descending Orlando TRACON
Sun 06:50:03 PM 28.3833 -81.3333 360° North 102 117 600 -500 Descending Orlando TRACON
Sun 06:52:00 PM 28.4167 -81.3000 336° Northwest  Level FlightAware Approximate
Sun 06:59:00 PM 28.4294 -81.3090 336° Northwest  Level Estimated
Sun 07:00:00 PM 28.4294 -81.3090 336° Northwest  Level Estimated
Sun 07:01:00 PM 28.4294 -81.3090 336° Northwest  Level Estimated

Login

Don't have an account? Register now (free) for customized features, flight alerts, and more!